Overview Statistics Trail Chart Weather Telemetry Raw packets
 

This is the latest recevied weather packets stored in our database for station/object W5ITZ. If no packets are shown the sender has not sent any weather packets the latest 10 day(s).

<< 18 19 20 21 22 23 24 >>
Time Temp. Humidity Pressure Rain* Wind** Luminosity Snow
1788099949 31.11° C 76% 1017 hPa 0 mm - 409 W/m² -
1788099644 31.11° C 78% 1017 hPa 0 mm - 373 W/m² -
1788099338 30° C 82% 1017.1 hPa 0 mm - 346 W/m² -
1788099033 29.44° C 85% 1017.1 hPa 0 mm - 326 W/m² -
1788098727 28.89° C 88% 1016.9 hPa 0 mm - 283 W/m² -
1788098423 28.33° C 91% 1017 hPa 0 mm - 226 W/m² -
1788098118 27.78° C 94% 1016.7 hPa 0 mm - 187 W/m² -
1788097813 27.22° C 95% 1016.7 hPa 0 mm - 162 W/m² -
1788097509 26.67° C 96% 1016.7 hPa 0 mm - 143 W/m² -
1788097204 26.11° C 96% 1016.8 hPa 0 mm - 126 W/m² -
1788096900 25.56° C 97% 1016.7 hPa 0 mm - 111 W/m² -
1788096595 25.56° C 96% 1016.6 hPa 0 mm - 61 W/m² -
1788096291 25.56° C 96% 1016.6 hPa 0 mm - 50 W/m² -
1788095991 25° C 97% 1016.6 hPa 0 mm - 47 W/m² -
1788095690 25° C 97% 1016.5 hPa 0 mm - 47 W/m² -
1788095384 25° C 97% 1016.6 hPa 0 mm - 39 W/m² -
1788095080 24.44° C 97% 1016.3 hPa 0 mm - 37 W/m² -
1788094778 24.44° C 97% 1016.3 hPa 0 mm - 36 W/m² -
1788094474 24.44° C 97% 1016.3 hPa 0 mm - 60 W/m² -
1788094172 23.89° C 97% 1016.4 hPa 0 mm - 50 W/m² -
1788093868 23.89° C 97% 1016.3 hPa 0 mm - 33 W/m² -
1788093564 23.89° C 97% 1016.2 hPa 0 mm - 23 W/m² -
1788093261 23.89° C 97% 1016.2 hPa 0 mm - 20 W/m² -
1788092958 23.89° C 97% 1016.3 hPa 0 mm - 19 W/m² -
1788092653 23.89° C 97% 1016.1 hPa 0 mm - 17 W/m² -

* Rain latest hour (hover to see other rain measurements)
** Current wind speed in m/s (hover to see current wind gust speed)